This is the latest recevied weather packets stored in our database for station/object SP5IZJ-2. If no packets are shown the sender has not sent any weather packets the latest 10 day(s).
| Time | Temp. | Humidity | Pressure | Rain* | Wind** | Luminosity | Snow |
|---|---|---|---|---|---|---|---|
| 1787574991 | 19.44° C | 65% | 1012.8 hPa | 0 mm | - | - | - |
| 1787574561 | 19.44° C | 64% | 1012.7 hPa | 0 mm | - | - | - |
| 1787574183 | 19.44° C | 65% | 1012.7 hPa | 0 mm | - | - | - |
| 1787573785 | 20.56° C | 64% | 1012.8 hPa | 0 mm | - | - | - |
| 1787573722 | 20.56° C | 64% | 1012.8 hPa | 0 mm | - | - | - |
| 1787572881 | 20.56° C | 65% | 1012.6 hPa | 0 mm | - | - | - |
| 1787571680 | 20.56° C | 69% | 1012.6 hPa | 0 mm | - | - | - |
| 1787571620 | 20.56° C | 69% | 1012.6 hPa | 0 mm | - | - | - |
| 1787571200 | 19.44° C | 70% | 1012.5 hPa | 0 mm | - | - | - |
| 1787570360 | 18.89° C | 72% | 1012.9 hPa | 0 mm | - | - | - |
| 1787569948 | 18.33° C | 76% | 1012.9 hPa | 0 mm | - | - | - |
| 1787569521 | 17.78° C | 76% | 1013 hPa | 0 mm | - | - | - |
| 1787569105 | 17.78° C | 78% | 1012.9 hPa | 0 mm | - | - | - |
| 1787567841 | 15.56° C | 82% | 1012.8 hPa | 0.51 mm | - | - | - |
| 1787567425 | 15.56° C | 83% | 1012.8 hPa | 0.51 mm | - | - | - |
| 1787566590 | 15.56° C | 85% | 1012.7 hPa | 0.51 mm | - | - | - |
| 1787566166 | 15° C | 85% | 1012.8 hPa | 0.51 mm | - | - | - |
| 1787564906 | 14.44° C | 83% | 1012.9 hPa | 0 mm | - | - | - |
| 1787563223 | 17.78° C | 68% | 1012.9 hPa | 0 mm | - | - | - |
| 1787562806 | 17.78° C | 67% | 1012.8 hPa | 0 mm | - | - | - |
| 1787562384 | 18.33° C | 66% | 1012.7 hPa | 0 mm | - | - | - |
| 1787561964 | 18.33° C | 65% | 1012.6 hPa | 0 mm | - | - | - |
| 1787561177 | 19.44° C | 63% | 1012.8 hPa | 0 mm | - | - | - |
| 1787561132 | 19.44° C | 63% | 1012.8 hPa | 0 mm | - | - | - |
| 1787559869 | 18.89° C | 65% | 1012.8 hPa | 0 mm | - | - | - |
* Rain latest hour (hover to see other rain measurements)
** Current wind speed in m/s (hover to see current wind gust speed)